sensor_id;sensor_type;location;lat;lon;timestamp;P1;durP1;ratioP1;P2;durP2;ratioP2
19179;SDS011;9722;48.754;8.868;2023-07-16T00:00:38;0.37;;;0.33;;
19179;SDS011;9722;48.754;8.868;2023-07-16T00:03:58;0.30;;;0.30;;
19179;SDS011;9722;48.754;8.868;2023-07-16T00:07:19;0.20;;;0.20;;
19179;SDS011;9722;48.754;8.868;2023-07-16T00:10:39;0.57;;;0.37;;
19179;SDS011;9722;48.754;8.868;2023-07-16T00:14:00;0.50;;;0.50;;
19179;SDS011;9722;48.754;8.868;2023-07-16T00:17:21;0.23;;;0.23;;
19179;SDS011;9722;48.754;8.868;2023-07-16T00:20:42;0.40;;;0.40;;
19179;SDS011;9722;48.754;8.868;2023-07-16T00:24:03;0.40;;;0.33;;
19179;SDS011;9722;48.754;8.868;2023-07-16T00:27:23;0.37;;;0.37;;
19179;SDS011;9722;48.754;8.868;2023-07-16T00:30:44;0.40;;;0.40;;
19179;SDS011;9722;48.754;8.868;2023-07-16T00:34:04;0.40;;;0.40;;
19179;SDS011;9722;48.754;8.868;2023-07-16T00:37:25;0.50;;;0.50;;
19179;SDS011;9722;48.754;8.868;2023-07-16T00:40:46;1.27;;;0.60;;
19179;SDS011;9722;48.754;8.868;2023-07-16T00:44:06;0.73;;;0.53;;
19179;SDS011;9722;48.754;8.868;2023-07-16T00:47:27;0.87;;;0.60;;
19179;SDS011;9722;48.754;8.868;2023-07-16T00:50:48;0.50;;;0.50;;
19179;SDS011;9722;48.754;8.868;2023-07-16T00:54:10;0.40;;;0.40;;
19179;SDS011;9722;48.754;8.868;2023-07-16T00:57:31;1.33;;;0.63;;
19179;SDS011;9722;48.754;8.868;2023-07-16T01:00:53;0.60;;;0.60;;
19179;SDS011;9722;48.754;8.868;2023-07-16T01:04:14;1.40;;;0.70;;
19179;SDS011;9722;48.754;8.868;2023-07-16T01:07:34;0.73;;;0.73;;
19179;SDS011;9722;48.754;8.868;2023-07-16T01:10:57;0.70;;;0.70;;
19179;SDS011;9722;48.754;8.868;2023-07-16T01:14:18;0.80;;;0.80;;
19179;SDS011;9722;48.754;8.868;2023-07-16T01:17:39;0.60;;;0.60;;
19179;SDS011;9722;48.754;8.868;2023-07-16T01:21:00;0.80;;;0.60;;
19179;SDS011;9722;48.754;8.868;2023-07-16T01:31:41;1.00;;;0.77;;
19179;SDS011;9722;48.754;8.868;2023-07-16T01:35:04;2.50;;;0.93;;
19179;SDS011;9722;48.754;8.868;2023-07-16T01:38:25;1.07;;;0.90;;
19179;SDS011;9722;48.754;8.868;2023-07-16T01:41:46;0.70;;;0.70;;
19179;SDS011;9722;48.754;8.868;2023-07-16T01:45:06;2.00;;;0.87;;
19179;SDS011;9722;48.754;8.868;2023-07-16T01:48:31;2.20;;;0.80;;
19179;SDS011;9722;48.754;8.868;2023-07-16T01:51:53;1.93;;;0.63;;
19179;SDS011;9722;48.754;8.868;2023-07-16T01:55:14;0.83;;;0.83;;
19179;SDS011;9722;48.754;8.868;2023-07-16T01:58:35;1.30;;;0.90;;
19179;SDS011;9722;48.754;8.868;2023-07-16T02:01:55;1.07;;;0.60;;
19179;SDS011;9722;48.754;8.868;2023-07-16T02:05:16;4.60;;;0.83;;
19179;SDS011;9722;48.754;8.868;2023-07-16T02:08:36;1.27;;;0.83;;
19179;SDS011;9722;48.754;8.868;2023-07-16T02:11:57;0.80;;;0.80;;
19179;SDS011;9722;48.754;8.868;2023-07-16T02:15:18;0.90;;;0.80;;
19179;SDS011;9722;48.754;8.868;2023-07-16T02:18:39;1.50;;;0.70;;
19179;SDS011;9722;48.754;8.868;2023-07-16T02:21:59;1.60;;;0.90;;
19179;SDS011;9722;48.754;8.868;2023-07-16T02:25:20;2.20;;;0.90;;
19179;SDS011;9722;48.754;8.868;2023-07-16T02:28:40;1.33;;;0.60;;
19179;SDS011;9722;48.754;8.868;2023-07-16T02:32:01;1.60;;;0.87;;
19179;SDS011;9722;48.754;8.868;2023-07-16T02:35:21;1.23;;;0.70;;
19179;SDS011;9722;48.754;8.868;2023-07-16T02:38:42;0.80;;;0.80;;
19179;SDS011;9722;48.754;8.868;2023-07-16T02:42:02;1.17;;;1.10;;
19179;SDS011;9722;48.754;8.868;2023-07-16T02:45:23;1.53;;;0.90;;
19179;SDS011;9722;48.754;8.868;2023-07-16T02:48:43;3.13;;;0.87;;
19179;SDS011;9722;48.754;8.868;2023-07-16T02:52:04;0.80;;;0.80;;
19179;SDS011;9722;48.754;8.868;2023-07-16T02:55:26;1.90;;;0.90;;
19179;SDS011;9722;48.754;8.868;2023-07-16T02:58:46;1.90;;;0.80;;
19179;SDS011;9722;48.754;8.868;2023-07-16T03:02:07;1.60;;;0.77;;
19179;SDS011;9722;48.754;8.868;2023-07-16T03:05:28;1.10;;;1.00;;
19179;SDS011;9722;48.754;8.868;2023-07-16T03:08:48;3.67;;;1.03;;
19179;SDS011;9722;48.754;8.868;2023-07-16T03:12:09;1.17;;;0.80;;
19179;SDS011;9722;48.754;8.868;2023-07-16T03:15:29;1.57;;;0.90;;
19179;SDS011;9722;48.754;8.868;2023-07-16T03:18:50;2.00;;;0.87;;
19179;SDS011;9722;48.754;8.868;2023-07-16T03:22:10;1.67;;;1.10;;
19179;SDS011;9722;48.754;8.868;2023-07-16T03:25:31;2.27;;;1.13;;
19179;SDS011;9722;48.754;8.868;2023-07-16T03:28:51;0.97;;;0.97;;
19179;SDS011;9722;48.754;8.868;2023-07-16T03:32:12;2.17;;;1.30;;
19179;SDS011;9722;48.754;8.868;2023-07-16T03:35:32;3.93;;;1.20;;
19179;SDS011;9722;48.754;8.868;2023-07-16T03:38:53;2.13;;;1.20;;
19179;SDS011;9722;48.754;8.868;2023-07-16T03:42:13;2.17;;;1.27;;
19179;SDS011;9722;48.754;8.868;2023-07-16T03:45:34;1.00;;;1.00;;
19179;SDS011;9722;48.754;8.868;2023-07-16T03:48:54;2.43;;;1.20;;
19179;SDS011;9722;48.754;8.868;2023-07-16T03:52:15;3.70;;;1.13;;
19179;SDS011;9722;48.754;8.868;2023-07-16T03:55:35;2.00;;;1.20;;
19179;SDS011;9722;48.754;8.868;2023-07-16T03:58:56;2.00;;;1.10;;
19179;SDS011;9722;48.754;8.868;2023-07-16T04:02:16;1.23;;;1.13;;
19179;SDS011;9722;48.754;8.868;2023-07-16T04:05:37;1.27;;;0.73;;
19179;SDS011;9722;48.754;8.868;2023-07-16T04:08:57;2.97;;;1.20;;
19179;SDS011;9722;48.754;8.868;2023-07-16T04:12:18;2.60;;;1.40;;
19179;SDS011;9722;48.754;8.868;2023-07-16T04:15:39;2.87;;;1.20;;
19179;SDS011;9722;48.754;8.868;2023-07-16T04:18:59;1.67;;;1.00;;
19179;SDS011;9722;48.754;8.868;2023-07-16T04:22:19;3.77;;;1.20;;
19179;SDS011;9722;48.754;8.868;2023-07-16T04:25:40;1.73;;;1.00;;
19179;SDS011;9722;48.754;8.868;2023-07-16T04:29:00;2.83;;;1.20;;
19179;SDS011;9722;48.754;8.868;2023-07-16T04:32:21;3.93;;;1.30;;
19179;SDS011;9722;48.754;8.868;2023-07-16T04:35:42;2.77;;;1.20;;
19179;SDS011;9722;48.754;8.868;2023-07-16T04:39:02;1.70;;;1.17;;
19179;SDS011;9722;48.754;8.868;2023-07-16T04:42:23;1.80;;;1.50;;
19179;SDS011;9722;48.754;8.868;2023-07-16T04:45:44;2.13;;;1.30;;
19179;SDS011;9722;48.754;8.868;2023-07-16T04:49:06;3.37;;;1.20;;
19179;SDS011;9722;48.754;8.868;2023-07-16T04:52:27;2.63;;;1.57;;
19179;SDS011;9722;48.754;8.868;2023-07-16T04:55:47;2.77;;;1.17;;
19179;SDS011;9722;48.754;8.868;2023-07-16T04:59:08;3.30;;;1.20;;
19179;SDS011;9722;48.754;8.868;2023-07-16T05:02:28;2.73;;;1.13;;
19179;SDS011;9722;48.754;8.868;2023-07-16T05:05:49;2.67;;;1.47;;
19179;SDS011;9722;48.754;8.868;2023-07-16T05:09:09;2.57;;;1.10;;
19179;SDS011;9722;48.754;8.868;2023-07-16T05:12:30;3.37;;;1.33;;
19179;SDS011;9722;48.754;8.868;2023-07-16T05:15:50;2.73;;;1.37;;
19179;SDS011;9722;48.754;8.868;2023-07-16T05:19:11;2.83;;;1.40;;
19179;SDS011;9722;48.754;8.868;2023-07-16T05:22:32;3.33;;;1.20;;
19179;SDS011;9722;48.754;8.868;2023-07-16T05:25:52;1.50;;;1.37;;
19179;SDS011;9722;48.754;8.868;2023-07-16T05:29:13;3.23;;;1.30;;
19179;SDS011;9722;48.754;8.868;2023-07-16T05:32:35;3.00;;;1.10;;
19179;SDS011;9722;48.754;8.868;2023-07-16T05:35:55;5.63;;;1.43;;
19179;SDS011;9722;48.754;8.868;2023-07-16T05:39:16;3.60;;;1.50;;
19179;SDS011;9722;48.754;8.868;2023-07-16T05:42:36;4.87;;;1.60;;
19179;SDS011;9722;48.754;8.868;2023-07-16T05:45:57;1.63;;;1.17;;
19179;SDS011;9722;48.754;8.868;2023-07-16T05:49:17;2.93;;;1.30;;
19179;SDS011;9722;48.754;8.868;2023-07-16T05:52:38;2.67;;;1.07;;
19179;SDS011;9722;48.754;8.868;2023-07-16T05:55:58;3.90;;;1.30;;
19179;SDS011;9722;48.754;8.868;2023-07-16T05:59:19;2.83;;;1.20;;
19179;SDS011;9722;48.754;8.868;2023-07-16T06:02:40;2.47;;;1.50;;
19179;SDS011;9722;48.754;8.868;2023-07-16T06:06:00;2.40;;;1.20;;
19179;SDS011;9722;48.754;8.868;2023-07-16T06:09:20;3.53;;;1.63;;
19179;SDS011;9722;48.754;8.868;2023-07-16T06:12:41;1.87;;;1.10;;
19179;SDS011;9722;48.754;8.868;2023-07-16T06:16:02;1.77;;;1.20;;
19179;SDS011;9722;48.754;8.868;2023-07-16T06:19:22;4.23;;;1.30;;
19179;SDS011;9722;48.754;8.868;2023-07-16T06:22:43;3.83;;;1.40;;
19179;SDS011;9722;48.754;8.868;2023-07-16T06:26:03;3.33;;;1.30;;
19179;SDS011;9722;48.754;8.868;2023-07-16T06:29:24;1.97;;;1.23;;
19179;SDS011;9722;48.754;8.868;2023-07-16T06:32:44;1.90;;;1.10;;
19179;SDS011;9722;48.754;8.868;2023-07-16T06:36:05;1.53;;;1.37;;
19179;SDS011;9722;48.754;8.868;2023-07-16T06:39:25;4.73;;;1.23;;
19179;SDS011;9722;48.754;8.868;2023-07-16T06:42:46;2.67;;;1.10;;
19179;SDS011;9722;48.754;8.868;2023-07-16T06:46:06;3.63;;;1.30;;
19179;SDS011;9722;48.754;8.868;2023-07-16T06:49:29;5.00;;;1.50;;
19179;SDS011;9722;48.754;8.868;2023-07-16T06:52:50;1.53;;;0.80;;
19179;SDS011;9722;48.754;8.868;2023-07-16T06:56:11;2.60;;;1.13;;
19179;SDS011;9722;48.754;8.868;2023-07-16T06:59:31;3.37;;;1.33;;
19179;SDS011;9722;48.754;8.868;2023-07-16T07:02:52;1.97;;;1.30;;
19179;SDS011;9722;48.754;8.868;2023-07-16T07:06:12;2.80;;;1.17;;
19179;SDS011;9722;48.754;8.868;2023-07-16T07:09:33;3.17;;;1.10;;
19179;SDS011;9722;48.754;8.868;2023-07-16T07:12:53;1.93;;;0.90;;
19179;SDS011;9722;48.754;8.868;2023-07-16T07:16:14;3.07;;;1.40;;
19179;SDS011;9722;48.754;8.868;2023-07-16T07:19:34;2.47;;;1.00;;
19179;SDS011;9722;48.754;8.868;2023-07-16T07:22:55;3.23;;;1.10;;
19179;SDS011;9722;48.754;8.868;2023-07-16T07:26:15;1.57;;;1.03;;
19179;SDS011;9722;48.754;8.868;2023-07-16T07:29:36;2.67;;;1.20;;
19179;SDS011;9722;48.754;8.868;2023-07-16T07:32:56;1.40;;;1.07;;
19179;SDS011;9722;48.754;8.868;2023-07-16T07:36:17;2.40;;;1.27;;
19179;SDS011;9722;48.754;8.868;2023-07-16T07:39:37;3.07;;;1.30;;
19179;SDS011;9722;48.754;8.868;2023-07-16T07:42:59;2.67;;;1.23;;
19179;SDS011;9722;48.754;8.868;2023-07-16T07:46:20;2.03;;;1.23;;
19179;SDS011;9722;48.754;8.868;2023-07-16T07:49:40;2.10;;;1.20;;
19179;SDS011;9722;48.754;8.868;2023-07-16T07:53:01;2.40;;;1.13;;
19179;SDS011;9722;48.754;8.868;2023-07-16T07:56:22;3.83;;;1.20;;
19179;SDS011;9722;48.754;8.868;2023-07-16T07:59:42;3.23;;;1.10;;
19179;SDS011;9722;48.754;8.868;2023-07-16T08:03:03;2.00;;;1.47;;
19179;SDS011;9722;48.754;8.868;2023-07-16T08:06:24;3.37;;;1.17;;
19179;SDS011;9722;48.754;8.868;2023-07-16T08:09:45;1.63;;;1.23;;
19179;SDS011;9722;48.754;8.868;2023-07-16T08:13:06;1.83;;;1.13;;
19179;SDS011;9722;48.754;8.868;2023-07-16T08:16:26;2.43;;;1.23;;
19179;SDS011;9722;48.754;8.868;2023-07-16T08:19:47;3.10;;;1.20;;
19179;SDS011;9722;48.754;8.868;2023-07-16T08:23:07;2.57;;;1.03;;
19179;SDS011;9722;48.754;8.868;2023-07-16T08:26:28;3.57;;;1.63;;
19179;SDS011;9722;48.754;8.868;2023-07-16T08:29:48;1.87;;;1.00;;
19179;SDS011;9722;48.754;8.868;2023-07-16T08:33:09;1.07;;;0.90;;
19179;SDS011;9722;48.754;8.868;2023-07-16T08:36:29;1.10;;;1.00;;
19179;SDS011;9722;48.754;8.868;2023-07-16T08:39:51;1.87;;;1.10;;
19179;SDS011;9722;48.754;8.868;2023-07-16T08:43:13;2.07;;;1.10;;
19179;SDS011;9722;48.754;8.868;2023-07-16T08:46:36;2.13;;;1.10;;
19179;SDS011;9722;48.754;8.868;2023-07-16T08:49:57;3.00;;;1.10;;
19179;SDS011;9722;48.754;8.868;2023-07-16T08:53:17;2.37;;;1.03;;
19179;SDS011;9722;48.754;8.868;2023-07-16T08:56:38;2.07;;;1.30;;
19179;SDS011;9722;48.754;8.868;2023-07-16T08:59:59;1.80;;;1.00;;
19179;SDS011;9722;48.754;8.868;2023-07-16T09:03:21;0.90;;;0.90;;
19179;SDS011;9722;48.754;8.868;2023-07-16T09:06:41;2.17;;;1.50;;
19179;SDS011;9722;48.754;8.868;2023-07-16T09:10:02;1.20;;;1.00;;
19179;SDS011;9722;48.754;8.868;2023-07-16T09:13:24;2.20;;;1.10;;
19179;SDS011;9722;48.754;8.868;2023-07-16T09:16:48;1.83;;;1.07;;
19179;SDS011;9722;48.754;8.868;2023-07-16T09:20:14;1.70;;;1.20;;
19179;SDS011;9722;48.754;8.868;2023-07-16T09:23:35;3.47;;;1.30;;
19179;SDS011;9722;48.754;8.868;2023-07-16T09:26:56;1.67;;;1.07;;
19179;SDS011;9722;48.754;8.868;2023-07-16T09:30:18;1.23;;;1.10;;
19179;SDS011;9722;48.754;8.868;2023-07-16T09:33:38;1.30;;;1.00;;
19179;SDS011;9722;48.754;8.868;2023-07-16T09:36:59;1.10;;;0.90;;
19179;SDS011;9722;48.754;8.868;2023-07-16T09:40:21;1.40;;;1.07;;
19179;SDS011;9722;48.754;8.868;2023-07-16T09:43:42;1.30;;;1.10;;
19179;SDS011;9722;48.754;8.868;2023-07-16T09:47:03;1.93;;;1.23;;
19179;SDS011;9722;48.754;8.868;2023-07-16T09:50:24;1.53;;;1.10;;
19179;SDS011;9722;48.754;8.868;2023-07-16T09:53:49;2.33;;;1.20;;
19179;SDS011;9722;48.754;8.868;2023-07-16T09:57:11;3.13;;;1.40;;
19179;SDS011;9722;48.754;8.868;2023-07-16T10:00:34;1.43;;;1.10;;
19179;SDS011;9722;48.754;8.868;2023-07-16T10:03:57;1.50;;;1.13;;
19179;SDS011;9722;48.754;8.868;2023-07-16T10:07:19;1.33;;;1.23;;
19179;SDS011;9722;48.754;8.868;2023-07-16T10:10:42;1.13;;;1.03;;
19179;SDS011;9722;48.754;8.868;2023-07-16T10:14:10;1.07;;;1.00;;
19179;SDS011;9722;48.754;8.868;2023-07-16T10:17:31;1.10;;;1.00;;
19179;SDS011;9722;48.754;8.868;2023-07-16T10:20:53;2.17;;;1.10;;
19179;SDS011;9722;48.754;8.868;2023-07-16T10:24:17;1.40;;;1.30;;
19179;SDS011;9722;48.754;8.868;2023-07-16T10:27:40;1.10;;;1.00;;
19179;SDS011;9722;48.754;8.868;2023-07-16T10:31:01;1.60;;;1.50;;
19179;SDS011;9722;48.754;8.868;2023-07-16T10:34:22;1.43;;;1.20;;
19179;SDS011;9722;48.754;8.868;2023-07-16T10:37:43;1.07;;;1.03;;
19179;SDS011;9722;48.754;8.868;2023-07-16T10:41:03;1.30;;;1.20;;
19179;SDS011;9722;48.754;8.868;2023-07-16T10:44:25;2.00;;;1.10;;
19179;SDS011;9722;48.754;8.868;2023-07-16T10:47:51;1.30;;;1.20;;
19179;SDS011;9722;48.754;8.868;2023-07-16T10:51:14;1.40;;;1.23;;
19179;SDS011;9722;48.754;8.868;2023-07-16T10:54:35;3.27;;;1.30;;
19179;SDS011;9722;48.754;8.868;2023-07-16T10:57:56;1.43;;;1.33;;
19179;SDS011;9722;48.754;8.868;2023-07-16T11:01:17;1.20;;;1.10;;
19179;SDS011;9722;48.754;8.868;2023-07-16T11:04:37;4.10;;;1.23;;
19179;SDS011;9722;48.754;8.868;2023-07-16T11:07:58;1.33;;;1.20;;
19179;SDS011;9722;48.754;8.868;2023-07-16T11:11:28;1.73;;;1.20;;
19179;SDS011;9722;48.754;8.868;2023-07-16T11:14:53;2.20;;;1.37;;
19179;SDS011;9722;48.754;8.868;2023-07-16T11:18:15;1.17;;;1.07;;
19179;SDS011;9722;48.754;8.868;2023-07-16T11:21:36;1.90;;;1.43;;
19179;SDS011;9722;48.754;8.868;2023-07-16T11:24:56;1.57;;;1.20;;
19179;SDS011;9722;48.754;8.868;2023-07-16T11:28:17;2.03;;;1.40;;
19179;SDS011;9722;48.754;8.868;2023-07-16T11:31:38;1.20;;;1.10;;
19179;SDS011;9722;48.754;8.868;2023-07-16T11:35:03;2.13;;;1.30;;
19179;SDS011;9722;48.754;8.868;2023-07-16T11:38:26;1.93;;;1.20;;
19179;SDS011;9722;48.754;8.868;2023-07-16T11:41:55;3.37;;;1.30;;
19179;SDS011;9722;48.754;8.868;2023-07-16T11:45:18;1.30;;;1.20;;
19179;SDS011;9722;48.754;8.868;2023-07-16T11:48:43;1.13;;;1.10;;
19179;SDS011;9722;48.754;8.868;2023-07-16T11:52:03;1.02;;;0.93;;
19179;SDS011;9722;48.754;8.868;2023-07-16T11:55:24;1.80;;;1.00;;
19179;SDS011;9722;48.754;8.868;2023-07-16T11:58:45;1.65;;;1.30;;
19179;SDS011;9722;48.754;8.868;2023-07-16T12:02:06;2.07;;;1.20;;
19179;SDS011;9722;48.754;8.868;2023-07-16T12:05:27;1.63;;;1.40;;
19179;SDS011;9722;48.754;8.868;2023-07-16T12:08:48;1.47;;;1.23;;
19179;SDS011;9722;48.754;8.868;2023-07-16T12:12:08;1.20;;;1.10;;
19179;SDS011;9722;48.754;8.868;2023-07-16T12:15:29;3.30;;;1.30;;
19179;SDS011;9722;48.754;8.868;2023-07-16T12:18:50;2.20;;;1.53;;
19179;SDS011;9722;48.754;8.868;2023-07-16T12:22:10;2.80;;;1.55;;
19179;SDS011;9722;48.754;8.868;2023-07-16T12:25:31;1.23;;;1.13;;
19179;SDS011;9722;48.754;8.868;2023-07-16T12:28:51;1.95;;;1.75;;
19179;SDS011;9722;48.754;8.868;2023-07-16T12:32:12;1.33;;;1.15;;
19179;SDS011;9722;48.754;8.868;2023-07-16T12:35:33;1.40;;;1.30;;
19179;SDS011;9722;48.754;8.868;2023-07-16T12:38:54;1.40;;;1.27;;
19179;SDS011;9722;48.754;8.868;2023-07-16T12:42:14;1.10;;;1.05;;
19179;SDS011;9722;48.754;8.868;2023-07-16T12:45:35;1.60;;;1.50;;
19179;SDS011;9722;48.754;8.868;2023-07-16T12:48:55;1.40;;;1.30;;
19179;SDS011;9722;48.754;8.868;2023-07-16T12:52:16;0.93;;;0.93;;
19179;SDS011;9722;48.754;8.868;2023-07-16T12:55:36;1.58;;;1.48;;
19179;SDS011;9722;48.754;8.868;2023-07-16T12:58:57;1.75;;;1.35;;
19179;SDS011;9722;48.754;8.868;2023-07-16T13:02:18;1.38;;;1.25;;
19179;SDS011;9722;48.754;8.868;2023-07-16T13:05:38;1.15;;;1.08;;
19179;SDS011;9722;48.754;8.868;2023-07-16T13:08:59;1.45;;;1.35;;
19179;SDS011;9722;48.754;8.868;2023-07-16T13:12:19;1.98;;;1.30;;
19179;SDS011;9722;48.754;8.868;2023-07-16T13:15:40;1.52;;;1.30;;
19179;SDS011;9722;48.754;8.868;2023-07-16T13:19:00;1.73;;;1.38;;
19179;SDS011;9722;48.754;8.868;2023-07-16T13:22:21;1.23;;;1.10;;
19179;SDS011;9722;48.754;8.868;2023-07-16T13:25:41;1.40;;;1.30;;
19179;SDS011;9722;48.754;8.868;2023-07-16T13:29:02;1.75;;;1.38;;
19179;SDS011;9722;48.754;8.868;2023-07-16T13:32:23;1.50;;;1.48;;
19179;SDS011;9722;48.754;8.868;2023-07-16T13:35:43;2.00;;;1.33;;
19179;SDS011;9722;48.754;8.868;2023-07-16T13:39:04;1.40;;;1.30;;
19179;SDS011;9722;48.754;8.868;2023-07-16T13:42:24;2.83;;;1.37;;
19179;SDS011;9722;48.754;8.868;2023-07-16T13:45:45;1.50;;;1.40;;
19179;SDS011;9722;48.754;8.868;2023-07-16T13:49:05;1.53;;;1.43;;
19179;SDS011;9722;48.754;8.868;2023-07-16T13:52:26;1.30;;;1.13;;
19179;SDS011;9722;48.754;8.868;2023-07-16T13:55:46;1.83;;;1.30;;
19179;SDS011;9722;48.754;8.868;2023-07-16T13:59:07;1.57;;;1.30;;
19179;SDS011;9722;48.754;8.868;2023-07-16T14:02:28;2.03;;;1.30;;
19179;SDS011;9722;48.754;8.868;2023-07-16T14:05:49;2.77;;;1.37;;
19179;SDS011;9722;48.754;8.868;2023-07-16T14:09:09;1.97;;;1.47;;
19179;SDS011;9722;48.754;8.868;2023-07-16T14:12:30;2.07;;;1.20;;
19179;SDS011;9722;48.754;8.868;2023-07-16T14:15:50;1.63;;;1.20;;
19179;SDS011;9722;48.754;8.868;2023-07-16T14:19:11;1.70;;;1.60;;
19179;SDS011;9722;48.754;8.868;2023-07-16T14:22:34;1.80;;;1.30;;
19179;SDS011;9722;48.754;8.868;2023-07-16T14:25:55;1.90;;;1.60;;
19179;SDS011;9722;48.754;8.868;2023-07-16T14:29:15;2.07;;;1.50;;
19179;SDS011;9722;48.754;8.868;2023-07-16T14:32:36;2.20;;;1.57;;
19179;SDS011;9722;48.754;8.868;2023-07-16T14:35:57;3.43;;;1.33;;
19179;SDS011;9722;48.754;8.868;2023-07-16T14:39:18;3.13;;;1.53;;
19179;SDS011;9722;48.754;8.868;2023-07-16T14:42:38;1.87;;;1.53;;
19179;SDS011;9722;48.754;8.868;2023-07-16T14:45:59;2.07;;;1.67;;
19179;SDS011;9722;48.754;8.868;2023-07-16T14:49:20;2.07;;;1.47;;
19179;SDS011;9722;48.754;8.868;2023-07-16T14:52:40;1.60;;;1.50;;
19179;SDS011;9722;48.754;8.868;2023-07-16T14:56:01;2.43;;;1.87;;
19179;SDS011;9722;48.754;8.868;2023-07-16T14:59:21;3.37;;;1.50;;
19179;SDS011;9722;48.754;8.868;2023-07-16T15:02:42;1.70;;;1.50;;
19179;SDS011;9722;48.754;8.868;2023-07-16T15:06:03;2.37;;;1.27;;
19179;SDS011;9722;48.754;8.868;2023-07-16T15:09:24;2.97;;;1.40;;
19179;SDS011;9722;48.754;8.868;2023-07-16T15:12:44;2.07;;;1.30;;
19179;SDS011;9722;48.754;8.868;2023-07-16T15:16:05;2.10;;;1.90;;
19179;SDS011;9722;48.754;8.868;2023-07-16T15:19:25;1.80;;;1.23;;
19179;SDS011;9722;48.754;8.868;2023-07-16T15:22:46;1.33;;;1.20;;
19179;SDS011;9722;48.754;8.868;2023-07-16T15:26:06;1.43;;;1.33;;
19179;SDS011;9722;48.754;8.868;2023-07-16T15:29:30;1.50;;;1.40;;
19179;SDS011;9722;48.754;8.868;2023-07-16T15:32:51;3.07;;;1.40;;
19179;SDS011;9722;48.754;8.868;2023-07-16T15:36:12;2.03;;;1.40;;
19179;SDS011;9722;48.754;8.868;2023-07-16T15:39:33;2.53;;;1.37;;
19179;SDS011;9722;48.754;8.868;2023-07-16T15:42:54;1.40;;;1.30;;
19179;SDS011;9722;48.754;8.868;2023-07-16T15:46:15;1.53;;;1.43;;
19179;SDS011;9722;48.754;8.868;2023-07-16T15:49:36;2.70;;;1.93;;
19179;SDS011;9722;48.754;8.868;2023-07-16T15:52:56;2.00;;;1.63;;
19179;SDS011;9722;48.754;8.868;2023-07-16T15:56:17;1.63;;;1.53;;
19179;SDS011;9722;48.754;8.868;2023-07-16T15:59:37;4.47;;;1.67;;
19179;SDS011;9722;48.754;8.868;2023-07-16T16:02:58;2.47;;;1.50;;
19179;SDS011;9722;48.754;8.868;2023-07-16T16:06:18;1.70;;;1.57;;
19179;SDS011;9722;48.754;8.868;2023-07-16T16:09:39;2.03;;;1.50;;
19179;SDS011;9722;48.754;8.868;2023-07-16T16:12:59;1.97;;;1.63;;
19179;SDS011;9722;48.754;8.868;2023-07-16T16:16:22;2.20;;;1.43;;
19179;SDS011;9722;48.754;8.868;2023-07-16T16:19:43;1.43;;;1.33;;
19179;SDS011;9722;48.754;8.868;2023-07-16T16:23:04;2.63;;;1.33;;
19179;SDS011;9722;48.754;8.868;2023-07-16T16:26:24;2.43;;;1.33;;
19179;SDS011;9722;48.754;8.868;2023-07-16T16:29:45;2.53;;;1.60;;
19179;SDS011;9722;48.754;8.868;2023-07-16T16:33:06;3.13;;;1.57;;
19179;SDS011;9722;48.754;8.868;2023-07-16T16:36:28;2.57;;;2.00;;
19179;SDS011;9722;48.754;8.868;2023-07-16T16:39:49;1.63;;;1.50;;
19179;SDS011;9722;48.754;8.868;2023-07-16T16:43:10;2.03;;;1.70;;
19179;SDS011;9722;48.754;8.868;2023-07-16T16:46:31;2.00;;;1.70;;
19179;SDS011;9722;48.754;8.868;2023-07-16T16:49:51;2.10;;;1.70;;
19179;SDS011;9722;48.754;8.868;2023-07-16T16:53:11;1.93;;;1.70;;
19179;SDS011;9722;48.754;8.868;2023-07-16T16:56:32;2.77;;;1.83;;
19179;SDS011;9722;48.754;8.868;2023-07-16T21:10:42;4.10;;;2.67;;
19179;SDS011;9722;48.754;8.868;2023-07-16T21:14:02;4.60;;;2.10;;
19179;SDS011;9722;48.754;8.868;2023-07-16T21:17:23;2.27;;;2.07;;
19179;SDS011;9722;48.754;8.868;2023-07-16T21:20:43;2.27;;;2.10;;
19179;SDS011;9722;48.754;8.868;2023-07-16T21:24:04;2.30;;;1.93;;
19179;SDS011;9722;48.754;8.868;2023-07-16T21:27:26;2.77;;;2.37;;
19179;SDS011;9722;48.754;8.868;2023-07-16T21:30:48;2.13;;;1.93;;
19179;SDS011;9722;48.754;8.868;2023-07-16T21:34:09;5.47;;;2.20;;
19179;SDS011;9722;48.754;8.868;2023-07-16T21:37:29;3.33;;;2.00;;
19179;SDS011;9722;48.754;8.868;2023-07-16T21:40:50;4.60;;;2.20;;
19179;SDS011;9722;48.754;8.868;2023-07-16T21:44:11;2.53;;;2.00;;
19179;SDS011;9722;48.754;8.868;2023-07-16T21:47:32;2.57;;;1.97;;
19179;SDS011;9722;48.754;8.868;2023-07-16T21:50:52;2.40;;;2.20;;
19179;SDS011;9722;48.754;8.868;2023-07-16T21:54:13;2.77;;;1.90;;
19179;SDS011;9722;48.754;8.868;2023-07-16T21:57:33;3.23;;;2.43;;
19179;SDS011;9722;48.754;8.868;2023-07-16T22:00:54;2.53;;;1.90;;
19179;SDS011;9722;48.754;8.868;2023-07-16T22:04:14;3.37;;;2.10;;
19179;SDS011;9722;48.754;8.868;2023-07-16T22:07:35;2.43;;;1.90;;
19179;SDS011;9722;48.754;8.868;2023-07-16T22:10:56;3.23;;;2.20;;
19179;SDS011;9722;48.754;8.868;2023-07-16T22:14:16;2.70;;;2.50;;
19179;SDS011;9722;48.754;8.868;2023-07-16T22:17:37;2.53;;;2.20;;
19179;SDS011;9722;48.754;8.868;2023-07-16T22:20:58;3.13;;;2.43;;
19179;SDS011;9722;48.754;8.868;2023-07-16T22:24:18;2.43;;;2.10;;
19179;SDS011;9722;48.754;8.868;2023-07-16T22:27:39;2.77;;;2.40;;
19179;SDS011;9722;48.754;8.868;2023-07-16T22:30:59;2.80;;;2.27;;
19179;SDS011;9722;48.754;8.868;2023-07-16T22:34:20;6.73;;;2.17;;
19179;SDS011;9722;48.754;8.868;2023-07-16T22:37:40;5.27;;;2.87;;
19179;SDS011;9722;48.754;8.868;2023-07-16T22:41:01;2.70;;;2.17;;
19179;SDS011;9722;48.754;8.868;2023-07-16T22:44:21;2.53;;;2.33;;
19179;SDS011;9722;48.754;8.868;2023-07-16T22:47:42;4.73;;;2.10;;
19179;SDS011;9722;48.754;8.868;2023-07-16T22:51:03;2.90;;;2.10;;
19179;SDS011;9722;48.754;8.868;2023-07-16T22:54:23;2.57;;;2.30;;
19179;SDS011;9722;48.754;8.868;2023-07-16T22:57:44;3.47;;;2.30;;
19179;SDS011;9722;48.754;8.868;2023-07-16T23:01:05;3.77;;;2.53;;
19179;SDS011;9722;48.754;8.868;2023-07-16T23:04:27;2.63;;;2.20;;
19179;SDS011;9722;48.754;8.868;2023-07-16T23:07:47;2.97;;;2.20;;
19179;SDS011;9722;48.754;8.868;2023-07-16T23:11:08;3.60;;;2.50;;
19179;SDS011;9722;48.754;8.868;2023-07-16T23:14:29;2.40;;;2.20;;
19179;SDS011;9722;48.754;8.868;2023-07-16T23:17:50;2.50;;;2.30;;
19179;SDS011;9722;48.754;8.868;2023-07-16T23:21:11;2.97;;;2.50;;
19179;SDS011;9722;48.754;8.868;2023-07-16T23:24:32;3.43;;;1.97;;
19179;SDS011;9722;48.754;8.868;2023-07-16T23:27:53;2.90;;;2.40;;
19179;SDS011;9722;48.754;8.868;2023-07-16T23:31:13;2.57;;;2.17;;
19179;SDS011;9722;48.754;8.868;2023-07-16T23:34:34;2.67;;;2.30;;
19179;SDS011;9722;48.754;8.868;2023-07-16T23:37:55;2.10;;;1.90;;
19179;SDS011;9722;48.754;8.868;2023-07-16T23:41:17;2.77;;;2.30;;
19179;SDS011;9722;48.754;8.868;2023-07-16T23:44:38;3.13;;;2.50;;
19179;SDS011;9722;48.754;8.868;2023-07-16T23:47:59;2.13;;;1.93;;
19179;SDS011;9722;48.754;8.868;2023-07-16T23:51:19;3.73;;;2.57;;
19179;SDS011;9722;48.754;8.868;2023-07-16T23:54:40;2.73;;;2.10;;
19179;SDS011;9722;48.754;8.868;2023-07-16T23:58:00;2.57;;;2.37;;
